Terminal Aerodrome Forecast
Issued by NWS Brownsville, TX

Home | Current Version | Previous Version | Text Only | Print | Product List | Glossary On
Versions: 1 2 3 4 5 6 7 8 9 10 11 12 13 14 15 16 17 18 19 20
697
FTUS44 KBRO 091225 AAA
TAFMFE
TAF AMD
KMFE 091225Z 0912/1012 34013G22KT P6SM BKN025 OVC035
     FM092000 33009KT P6SM OVC035
     FM100000 34008KT P6SM OVC035
     FM100300 33006KT P6SM OVC012
     FM100600 32005KT P6SM OVC015=

USA.gov is the U.S. government's official web portal to all federal, state and local government web resources and services.